sensor_id;sensor_type;location;lat;lon;timestamp;pressure;altitude;pressure_sealevel;temperature;humidity
53689;BME280;39583;54.682;30.662;2022-09-16T07:19:16;97769.75;;;14.75;87.48
53689;BME280;39583;54.682;30.662;2022-09-16T07:21:42;97770.28;;;15.01;87.13
53689;BME280;39583;54.682;30.662;2022-09-16T07:24:11;97775.22;;;15.18;86.19
53689;BME280;39583;54.682;30.662;2022-09-16T07:26:38;97770.03;;;15.40;85.73
53689;BME280;39583;54.682;30.662;2022-09-16T07:29:06;97759.03;;;15.31;83.78
53689;BME280;39583;54.682;30.662;2022-09-16T07:31:36;97775.09;;;15.47;83.27
53689;BME280;39583;54.682;30.662;2022-09-16T07:34:04;97771.69;;;15.60;82.86
53689;BME280;39583;54.682;30.662;2022-09-16T07:36:36;97772.94;;;15.68;82.19
53689;BME280;39583;54.682;30.662;2022-09-16T07:39:03;97768.22;;;15.73;81.50
53689;BME280;39583;54.682;30.662;2022-09-16T07:41:32;97762.19;;;15.95;81.63
53689;BME280;39583;54.682;30.662;2022-09-16T07:43:59;97760.03;;;16.11;80.30
53689;BME280;39583;54.682;30.662;2022-09-16T07:46:28;97764.56;;;16.02;79.51
53689;BME280;39583;54.682;30.662;2022-09-16T07:48:55;97769.94;;;16.20;79.70
53689;BME280;39583;54.682;30.662;2022-09-16T07:51:23;97759.09;;;16.34;79.43
53689;BME280;39583;54.682;30.662;2022-09-16T07:53:53;97752.00;;;16.06;77.53
53689;BME280;39583;54.682;30.662;2022-09-16T07:56:22;97778.28;;;15.91;77.83
53689;BME280;39583;54.682;30.662;2022-09-16T07:58:50;97775.06;;;15.89;78.07
53689;BME280;39583;54.682;30.662;2022-09-16T08:01:17;97766.13;;;15.89;77.48
53689;BME280;39583;54.682;30.662;2022-09-16T08:03:45;97769.72;;;15.66;75.91
53689;BME280;39583;54.682;30.662;2022-09-16T08:06:15;97773.47;;;15.46;75.26
53689;BME280;39583;54.682;30.662;2022-09-16T08:08:43;97762.41;;;15.42;73.63
53689;BME280;39583;54.682;30.662;2022-09-16T08:11:10;97764.75;;;15.49;72.98
53689;BME280;39583;54.682;30.662;2022-09-16T08:13:38;97765.44;;;15.59;71.42
53689;BME280;39583;54.682;30.662;2022-09-16T08:16:07;97760.69;;;15.70;71.21
53689;BME280;39583;54.682;30.662;2022-09-16T08:18:35;97753.50;;;15.79;70.56
53689;BME280;39583;54.682;30.662;2022-09-16T08:21:13;97752.31;;;15.85;70.04
53689;BME280;39583;54.682;30.662;2022-09-16T08:23:40;97754.66;;;15.92;69.15
53689;BME280;39583;54.682;30.662;2022-09-16T08:26:08;97760.16;;;15.87;67.96
53689;BME280;39583;54.682;30.662;2022-09-16T08:28:40;97758.25;;;15.87;66.51
53689;BME280;39583;54.682;30.662;2022-09-16T08:31:07;97754.97;;;15.90;66.25
53689;BME280;39583;54.682;30.662;2022-09-16T08:33:34;97758.69;;;15.95;65.09
53689;BME280;39583;54.682;30.662;2022-09-16T08:36:05;97755.38;;;15.98;64.52
53689;BME280;39583;54.682;30.662;2022-09-16T08:38:33;97759.13;;;16.02;63.65
53689;BME280;39583;54.682;30.662;2022-09-16T08:44:01;97751.09;;;16.10;63.87
53689;BME280;39583;54.682;30.662;2022-09-16T08:49:34;97740.59;;;16.36;63.61
53689;BME280;39583;54.682;30.662;2022-09-16T08:52:52;97736.09;;;16.45;62.71
53689;BME280;39583;54.682;30.662;2022-09-16T08:54:58;97733.75;;;16.52;61.83
53689;BME280;39583;54.682;30.662;2022-09-16T08:57:28;97723.31;;;16.46;61.69
53689;BME280;39583;54.682;30.662;2022-09-16T09:00:03;97729.13;;;16.53;60.67
53689;BME280;39583;54.682;30.662;2022-09-16T09:02:52;97723.22;;;16.65;59.96
53689;BME280;39583;54.682;30.662;2022-09-16T13:52:11;97700.63;;;17.55;46.17
53689;BME280;39583;54.682;30.662;2022-09-16T13:54:46;97703.22;;;17.38;46.45
53689;BME280;39583;54.682;30.662;2022-09-16T14:00:10;97701.25;;;17.16;47.29
53689;BME280;39583;54.682;30.662;2022-09-16T14:11:09;97710.22;;;17.53;46.86
53689;BME280;39583;54.682;30.662;2022-09-16T14:13:56;97721.34;;;17.79;47.06
53689;BME280;39583;54.682;30.662;2022-09-16T14:16:28;97720.97;;;17.94;46.99
53689;BME280;39583;54.682;30.662;2022-09-16T14:19:04;97724.88;;;17.79;46.75
53689;BME280;39583;54.682;30.662;2022-09-16T14:21:31;97723.47;;;17.68;47.15
53689;BME280;39583;54.682;30.662;2022-09-16T14:24:15;97727.19;;;17.50;47.37
53689;BME280;39583;54.682;30.662;2022-09-16T14:26:53;97727.63;;;17.29;48.06
53689;BME280;39583;54.682;30.662;2022-09-16T14:29:20;97724.81;;;17.34;47.80
53689;BME280;39583;54.682;30.662;2022-09-16T14:31:47;97730.78;;;17.59;47.71
53689;BME280;39583;54.682;30.662;2022-09-16T14:34:19;97731.63;;;17.82;46.94
53689;BME280;39583;54.682;30.662;2022-09-16T14:36:48;97727.72;;;17.74;46.84
53689;BME280;39583;54.682;30.662;2022-09-16T14:39:18;97736.38;;;17.40;47.30
53689;BME280;39583;54.682;30.662;2022-09-16T14:46:53;97738.41;;;16.52;49.64
53689;BME280;39583;54.682;30.662;2022-09-16T14:49:20;97739.97;;;16.39;50.17
53689;BME280;39583;54.682;30.662;2022-09-16T14:51:57;97742.69;;;16.26;50.23
53689;BME280;39583;54.682;30.662;2022-09-16T14:54:25;97749.00;;;16.21;50.60
53689;BME280;39583;54.682;30.662;2022-09-16T14:56:59;97750.31;;;16.23;50.70
53689;BME280;39583;54.682;30.662;2022-09-16T14:59:37;97748.41;;;16.24;50.81
53689;BME280;39583;54.682;30.662;2022-09-16T15:02:26;97746.91;;;16.18;50.86
53689;BME280;39583;54.682;30.662;2022-09-16T15:07:47;97729.19;;;16.20;50.67
53689;BME280;39583;54.682;30.662;2022-09-16T15:10:21;97753.78;;;16.43;50.59
53689;BME280;39583;54.682;30.662;2022-09-16T15:12:51;97758.94;;;16.58;50.54
53689;BME280;39583;54.682;30.662;2022-09-16T15:15:30;97758.50;;;16.70;50.53
53689;BME280;39583;54.682;30.662;2022-09-16T15:18:06;97762.00;;;16.70;50.52
53689;BME280;39583;54.682;30.662;2022-09-16T15:20:38;97762.84;;;16.52;50.90
53689;BME280;39583;54.682;30.662;2022-09-16T15:23:15;97767.44;;;16.38;51.08
53689;BME280;39583;54.682;30.662;2022-09-16T15:25:52;97754.28;;;16.31;51.40
53689;BME280;39583;54.682;30.662;2022-09-16T15:28:20;97768.97;;;16.30;51.47
53689;BME280;39583;54.682;30.662;2022-09-16T15:30:49;97761.47;;;16.22;51.52
53689;BME280;39583;54.682;30.662;2022-09-16T15:33:32;97771.19;;;16.09;51.43
53689;BME280;39583;54.682;30.662;2022-09-16T15:36:00;97771.34;;;15.99;51.63
53689;BME280;39583;54.682;30.662;2022-09-16T15:38:29;97771.81;;;15.87;51.93
53689;BME280;39583;54.682;30.662;2022-09-16T15:41:03;97780.69;;;15.74;52.05
53689;BME280;39583;54.682;30.662;2022-09-16T15:43:40;97773.59;;;15.59;52.42
53689;BME280;39583;54.682;30.662;2022-09-16T15:46:17;97775.16;;;15.42;52.85
53689;BME280;39583;54.682;30.662;2022-09-16T15:48:50;97780.03;;;15.21;53.20
53689;BME280;39583;54.682;30.662;2022-09-16T15:51:25;97783.81;;;15.01;53.87
53689;BME280;39583;54.682;30.662;2022-09-16T15:53:55;97786.75;;;14.81;54.08
53689;BME280;39583;54.682;30.662;2022-09-16T15:56:36;97786.72;;;14.57;54.46
53689;BME280;39583;54.682;30.662;2022-09-16T16:01:59;97785.16;;;14.22;55.43
53689;BME280;39583;54.682;30.662;2022-09-16T16:04:31;97797.72;;;14.07;55.42
53689;BME280;39583;54.682;30.662;2022-09-16T16:11:56;97798.28;;;13.65;56.64
53689;BME280;39583;54.682;30.662;2022-09-16T16:14:25;97803.81;;;13.40;57.53
53689;BME280;39583;54.682;30.662;2022-09-16T16:16:52;97787.22;;;13.02;58.27
53689;BME280;39583;54.682;30.662;2022-09-16T16:19:20;97799.44;;;12.89;58.77
53689;BME280;39583;54.682;30.662;2022-09-16T16:21:46;97807.59;;;12.64;59.13
53689;BME280;39583;54.682;30.662;2022-09-16T16:24:12;97803.06;;;12.39;59.78
53689;BME280;39583;54.682;30.662;2022-09-16T16:26:39;97804.97;;;12.13;60.39
53689;BME280;39583;54.682;30.662;2022-09-16T16:29:06;97806.56;;;11.94;60.94
53689;BME280;39583;54.682;30.662;2022-09-16T16:31:33;97806.78;;;11.77;61.40
53689;BME280;39583;54.682;30.662;2022-09-16T16:34:02;97813.78;;;11.68;61.76
53689;BME280;39583;54.682;30.662;2022-09-16T16:36:28;97781.13;;;11.49;62.09
53689;BME280;39583;54.682;30.662;2022-09-16T16:38:54;97809.97;;;11.53;62.24
53689;BME280;39583;54.682;30.662;2022-09-16T16:41:23;97809.94;;;11.43;62.33
53689;BME280;39583;54.682;30.662;2022-09-16T16:43:50;97816.94;;;11.34;62.79
53689;BME280;39583;54.682;30.662;2022-09-16T16:46:16;97813.94;;;11.26;62.97
53689;BME280;39583;54.682;30.662;2022-09-16T16:48:43;97810.94;;;11.17;63.16
53689;BME280;39583;54.682;30.662;2022-09-16T16:51:11;97816.28;;;11.07;63.46
53689;BME280;39583;54.682;30.662;2022-09-16T16:53:38;97802.47;;;10.93;63.74
53689;BME280;39583;54.682;30.662;2022-09-16T16:56:09;97794.88;;;10.80;63.93
53689;BME280;39583;54.682;30.662;2022-09-16T16:58:38;97809.72;;;10.82;64.03
53689;BME280;39583;54.682;30.662;2022-09-16T17:01:15;97815.84;;;10.73;64.37
53689;BME280;39583;54.682;30.662;2022-09-16T17:03:44;97819.81;;;10.65;64.69
53689;BME280;39583;54.682;30.662;2022-09-16T17:06:11;97827.06;;;10.59;64.73
53689;BME280;39583;54.682;30.662;2022-09-16T17:08:38;97818.41;;;10.52;64.90
53689;BME280;39583;54.682;30.662;2022-09-16T17:11:09;97819.97;;;10.43;65.01
53689;BME280;39583;54.682;30.662;2022-09-16T17:13:37;97823.66;;;10.32;65.13
53689;BME280;39583;54.682;30.662;2022-09-16T17:16:04;97823.81;;;10.20;65.60
53689;BME280;39583;54.682;30.662;2022-09-16T17:18:33;97818.25;;;10.00;65.74
53689;BME280;39583;54.682;30.662;2022-09-16T17:21:05;97836.25;;;9.99;66.00
53689;BME280;39583;54.682;30.662;2022-09-16T17:23:33;97837.22;;;9.88;66.10
53689;BME280;39583;54.682;30.662;2022-09-16T17:26:00;97840.09;;;9.77;66.62
53689;BME280;39583;54.682;30.662;2022-09-16T17:28:27;97821.34;;;9.55;66.78
53689;BME280;39583;54.682;30.662;2022-09-16T17:30:53;97838.53;;;9.54;67.18
53689;BME280;39583;54.682;30.662;2022-09-16T17:33:20;97835.72;;;9.43;67.46
53689;BME280;39583;54.682;30.662;2022-09-16T17:35:46;97830.72;;;9.30;67.84
53689;BME280;39583;54.682;30.662;2022-09-16T17:38:13;97838.66;;;9.20;68.34
53689;BME280;39583;54.682;30.662;2022-09-16T17:40:40;97832.94;;;9.11;68.64
53689;BME280;39583;54.682;30.662;2022-09-16T17:43:06;97834.34;;;8.97;68.89
53689;BME280;39583;54.682;30.662;2022-09-16T17:45:32;97845.28;;;8.91;69.29
53689;BME280;39583;54.682;30.662;2022-09-16T17:47:59;97842.19;;;8.82;69.55
53689;BME280;39583;54.682;30.662;2022-09-16T17:50:25;97839.47;;;8.77;69.80
53689;BME280;39583;54.682;30.662;2022-09-16T17:52:52;97838.81;;;8.70;70.04
53689;BME280;39583;54.682;30.662;2022-09-16T17:55:18;97843.00;;;8.61;70.17
53689;BME280;39583;54.682;30.662;2022-09-16T17:57:45;97845.53;;;8.50;70.32
53689;BME280;39583;54.682;30.662;2022-09-16T18:00:12;97852.09;;;8.43;70.82
53689;BME280;39583;54.682;30.662;2022-09-16T18:02:39;97826.22;;;8.20;70.83
53689;BME280;39583;54.682;30.662;2022-09-16T18:05:06;97844.59;;;8.28;71.22
53689;BME280;39583;54.682;30.662;2022-09-16T18:07:36;97853.66;;;8.22;71.35
53689;BME280;39583;54.682;30.662;2022-09-16T18:10:02;97859.72;;;8.17;71.64
53689;BME280;39583;54.682;30.662;2022-09-16T18:12:30;97855.91;;;8.13;71.55
53689;BME280;39583;54.682;30.662;2022-09-16T18:14:56;97847.19;;;8.06;72.11
53689;BME280;39583;54.682;30.662;2022-09-16T18:17:23;97848.44;;;7.98;72.04
53689;BME280;39583;54.682;30.662;2022-09-16T18:19:52;97856.59;;;7.92;72.28
53689;BME280;39583;54.682;30.662;2022-09-16T18:22:19;97851.41;;;7.85;72.53
53689;BME280;39583;54.682;30.662;2022-09-16T18:24:46;97850.75;;;7.78;72.85
53689;BME280;39583;54.682;30.662;2022-09-16T18:27:15;97850.09;;;7.71;73.09
53689;BME280;39583;54.682;30.662;2022-09-16T18:29:42;97837.81;;;7.58;73.20
53689;BME280;39583;54.682;30.662;2022-09-16T18:32:08;97848.59;;;7.63;73.37
53689;BME280;39583;54.682;30.662;2022-09-16T18:34:34;97849.34;;;7.59;73.45
53689;BME280;39583;54.682;30.662;2022-09-16T18:37:01;97846.31;;;7.55;73.61
53689;BME280;39583;54.682;30.662;2022-09-16T18:39:27;97852.94;;;7.53;73.77
53689;BME280;39583;54.682;30.662;2022-09-16T18:41:54;97843.78;;;7.49;73.80
53689;BME280;39583;54.682;30.662;2022-09-16T18:44:21;97843.22;;;7.47;73.96
53689;BME280;39583;54.682;30.662;2022-09-16T18:46:52;97842.53;;;7.39;73.90
53689;BME280;39583;54.682;30.662;2022-09-16T18:49:19;97843.56;;;7.38;74.05
